Time;durP1;ratioP1;P1;durP2;ratioP2;P2;SDS_P1;SDS_P2;PMS_P1;PMS_P2;Temp;Humidity;BMP_temperature;BMP_pressure;BME280_temperature;BME280_humidity;BME280_pressure;Samples;Min_cycle;Max_cycle;Signal;HPM_P1;HPM_P2
2023/07/03 00:02:08;;;;;;;15.02;9.45;;;;;;;-145.41;100.00;58600.66;4971153;28;20437;-74
2023/07/03 00:04:37;;;;;;;16.42;8.95;;;;;;;-145.41;100.00;58600.66;4951151;28;20482;-73
2023/07/03 00:07:04;;;;;;;17.10;9.77;;;;;;;-145.41;100.00;58600.66;4967349;28;20129;-73
2023/07/03 00:09:29;;;;;;;15.40;9.70;;;;;;;-145.41;100.00;58600.66;4966240;28;20671;-74
2023/07/03 00:11:54;;;;;;;22.50;11.07;;;;;;;-145.41;100.00;58600.66;4968875;28;20063;-74
2023/07/03 00:14:20;;;;;;;16.90;9.63;;;;;;;-145.41;100.00;58600.66;4968749;28;20047;-73
2023/07/03 00:16:45;;;;;;;14.05;8.68;;;;;;;-145.41;100.00;58600.66;4971115;28;20034;-73
2023/07/03 00:19:13;;;;;;;13.70;7.85;;;;;;;-145.41;100.00;58600.66;4967568;28;20114;-74
2023/07/03 00:21:44;;;;;;;14.27;9.00;;;;;;;-145.41;100.00;58600.66;4947581;28;20042;-74
2023/07/03 00:24:13;;;;;;;16.90;10.40;;;;;;;-145.41;100.00;58600.66;4970558;28;20506;-74
2023/07/03 00:26:40;;;;;;;13.30;8.73;;;;;;;-145.41;100.00;58600.66;4970717;28;20062;-74
2023/07/03 00:29:06;;;;;;;13.38;8.02;;;;;;;-145.41;100.00;58600.66;4968485;28;20039;-73
2023/07/03 00:31:32;;;;;;;11.48;8.05;;;;;;;-145.41;100.00;58600.66;4974323;28;20062;-73
2023/07/03 00:33:58;;;;;;;17.05;9.85;;;;;;;-145.41;100.00;58600.66;4975459;28;20521;-74
2023/07/03 00:36:24;;;;;;;13.38;8.60;;;;;;;-145.41;100.00;58600.66;4971217;28;20035;-74
2023/07/03 00:38:50;;;;;;;19.60;9.95;;;;;;;-145.41;100.00;58600.66;4956046;28;20555;-73
2023/07/03 00:41:16;;;;;;;17.15;8.68;;;;;;;-145.41;100.00;58600.66;4971743;28;20043;-74
2023/07/03 00:43:42;;;;;;;18.25;10.60;;;;;;;-145.41;100.00;58600.66;4956985;28;20062;-74
2023/07/03 00:46:12;;;;;;;17.67;10.40;;;;;;;-145.41;100.00;58600.66;4961670;28;20035;-74
2023/07/03 00:48:39;;;;;;;19.83;10.07;;;;;;;-145.41;100.00;58600.66;4953457;28;20031;-74
2023/07/03 00:51:05;;;;;;;15.30;8.77;;;;;;;-145.41;100.00;58600.66;4974887;28;20045;-73
2023/07/03 00:53:30;;;;;;;16.58;8.85;;;;;;;-145.41;100.00;58600.66;4951589;28;20039;-73
2023/07/03 00:55:56;;;;;;;15.18;9.57;;;;;;;-145.41;100.00;58600.66;4958209;28;20050;-74
2023/07/03 00:58:21;;;;;;;16.52;9.45;;;;;;;-145.41;100.00;58600.66;4953892;28;20121;-73
2023/07/03 01:00:53;;;;;;;15.32;9.40;;;;;;;-145.41;100.00;58600.66;4956880;28;20041;-73
2023/07/03 01:03:32;;;;;;;;;;;;;;;-145.41;100.00;58600.66;4952774;28;20035;-73
2023/07/03 01:06:00;;;;;;;16.65;9.25;;;;;;;-145.41;100.00;58600.66;4970840;28;19914;-74
2023/07/03 01:08:26;;;;;;;14.00;8.75;;;;;;;-145.41;100.00;58600.66;4966876;28;20405;-74
2023/07/03 01:10:52;;;;;;;15.98;8.85;;;;;;;-145.41;100.00;58600.66;4957241;28;20047;-74
2023/07/03 01:13:19;;;;;;;14.85;8.48;;;;;;;-145.41;100.00;58600.66;4954990;28;20126;-74
2023/07/03 01:15:45;;;;;;;15.38;9.05;;;;;;;-145.41;100.00;58600.66;4968249;28;20061;-74
2023/07/03 01:18:11;;;;;;;12.65;8.57;;;;;;;-145.41;100.00;58600.66;4957106;28;20039;-74
2023/07/03 01:20:45;;;;;;;16.00;8.98;;;;;;;-145.41;100.00;58600.66;4965687;28;20049;-73
2023/07/03 01:23:25;;;;;;;17.38;9.88;;;;;;;-145.41;100.00;58600.66;4971090;28;20054;-73
2023/07/03 01:25:52;;;;;;;16.05;9.40;;;;;;;-145.41;100.00;58600.66;4953785;28;20054;-74
2023/07/03 01:28:21;;;;;;;15.90;9.15;;;;;;;-145.41;100.00;58600.66;4957718;28;20063;-74
2023/07/03 01:30:48;;;;;;;14.27;9.20;;;;;;;-145.41;100.00;58600.66;4963895;28;20042;-74
2023/07/03 01:33:17;;;;;;;15.48;9.38;;;;;;;-145.41;100.00;58600.66;4971603;28;20039;-74
2023/07/03 01:35:46;;;;;;;14.75;8.40;;;;;;;-145.41;100.00;58600.66;4951061;28;20038;-74
2023/07/03 01:38:12;;;;;;;15.23;8.75;;;;;;;-145.41;100.00;58600.66;4940097;28;20092;-74
2023/07/03 01:40:38;;;;;;;15.60;9.93;;;;;;;-145.41;100.00;58600.66;4970757;28;20081;-74
2023/07/03 01:43:05;;;;;;;19.08;10.05;;;;;;;-145.41;100.00;58600.66;4971295;28;20066;-74
2023/07/03 01:45:33;;;;;;;17.75;8.70;;;;;;;-145.41;100.00;58600.66;4956278;28;20137;-74
2023/07/03 01:47:59;;;;;;;17.25;10.07;;;;;;;-145.41;100.00;58600.66;4956372;28;20046;-74
2023/07/03 01:50:28;;;;;;;17.58;9.25;;;;;;;-145.41;100.00;58600.66;4968158;28;20043;-74
2023/07/03 01:52:58;;;;;;;12.57;8.55;;;;;;;-145.41;100.00;58600.66;4973230;28;20489;-74
2023/07/03 01:55:35;;;;;;;15.10;8.68;;;;;;;-145.41;100.00;58600.66;4968095;28;20081;-74
2023/07/03 01:58:14;;;;;;;15.98;9.18;;;;;;;-145.41;100.00;58600.66;4943658;28;20035;-73
2023/07/03 02:00:48;;;;;;;12.00;8.38;;;;;;;-145.41;100.00;58600.66;4953461;29;20031;-74
2023/07/03 02:03:40;;;;;;;15.18;8.80;;;;;;;-145.41;100.00;58600.66;4953246;28;20027;-74
2023/07/03 02:06:11;;;;;;;12.63;8.60;;;;;;;-145.41;100.00;58600.66;4953275;28;20065;-74
2023/07/03 02:08:36;;;;;;;16.08;10.50;;;;;;;-145.41;100.00;58600.66;4952376;28;20461;-74
2023/07/03 02:11:02;;;;;;;14.73;8.88;;;;;;;-145.41;100.00;58600.66;4950250;28;20034;-74
2023/07/03 02:13:27;;;;;;;13.52;9.35;;;;;;;-145.41;100.00;58600.66;4970483;28;20031;-74
2023/07/03 02:15:56;;;;;;;14.70;9.05;;;;;;;-145.41;100.00;58600.66;4954498;28;20118;-74
2023/07/03 02:18:23;;;;;;;13.77;9.00;;;;;;;-145.41;100.00;58600.66;4956910;28;20477;-73
2023/07/03 02:20:51;;;;;;;15.48;8.63;;;;;;;-145.41;100.00;58600.66;4956099;28;20121;-73
2023/07/03 02:23:17;;;;;;;13.07;8.13;;;;;;;-145.41;100.00;58600.66;4937707;28;20188;-74
2023/07/03 02:25:43;;;;;;;13.50;8.77;;;;;;;-145.41;100.00;58600.66;4969301;28;20051;-74
2023/07/03 02:28:09;;;;;;;16.27;8.80;;;;;;;-145.41;100.00;58600.66;4939859;28;20258;-73
2023/07/03 02:30:34;;;;;;;16.17;9.35;;;;;;;-145.41;100.00;58600.66;4956125;28;20098;-73
2023/07/03 02:33:01;;;;;;;15.35;8.43;;;;;;;-145.41;100.00;58600.66;4956334;28;20031;-74
2023/07/03 02:35:26;;;;;;;14.60;8.40;;;;;;;-145.41;100.00;58600.66;4956211;28;20398;-74
2023/07/03 02:37:51;;;;;;;13.65;8.40;;;;;;;-145.41;100.00;58600.66;4972645;28;20511;-74
2023/07/03 02:40:17;;;;;;;12.85;8.43;;;;;;;-145.41;100.00;58600.66;4972739;28;20393;-73
2023/07/03 02:42:42;;;;;;;16.95;9.32;;;;;;;-145.41;100.00;58600.66;4955958;28;20390;-73
2023/07/03 02:45:08;;;;;;;17.75;9.13;;;;;;;-145.41;100.00;58600.66;4972747;28;20468;-74
2023/07/03 02:47:36;;;;;;;18.83;9.88;;;;;;;-145.41;100.00;58600.66;4952738;28;20027;-73
2023/07/03 02:50:07;;;;;;;18.88;9.38;;;;;;;-145.41;100.00;58600.66;4954979;28;20090;-74
2023/07/03 02:52:33;;;;;;;15.40;10.50;;;;;;;-145.41;100.00;58600.66;4954258;28;20382;-74
2023/07/03 02:54:59;;;;;;;16.70;9.15;;;;;;;-145.41;100.00;58600.66;4955199;28;20081;-74
2023/07/03 02:57:24;;;;;;;18.98;11.18;;;;;;;-145.41;100.00;58600.66;4955030;28;20082;-74
2023/07/03 02:59:50;;;;;;;15.88;8.80;;;;;;;-145.41;100.00;58600.66;4953781;28;20043;-74
2023/07/03 03:02:16;;;;;;;16.30;9.27;;;;;;;-145.41;100.00;58600.66;4955431;28;20031;-73
2023/07/03 03:04:41;;;;;;;15.45;8.75;;;;;;;-145.41;100.00;58600.66;4954649;28;20470;-73
2023/07/03 03:07:06;;;;;;;15.95;9.45;;;;;;;-145.41;100.00;58600.66;4942739;28;20113;-73
2023/07/03 03:09:32;;;;;;;19.75;10.10;;;;;;;-145.41;100.00;58600.66;4954821;28;20062;-74
2023/07/03 03:11:58;;;;;;;15.63;9.57;;;;;;;-145.41;100.00;58600.66;4955585;28;20038;-74
2023/07/03 03:14:24;;;;;;;17.50;9.95;;;;;;;-145.41;100.00;58600.66;4955750;28;20397;-74
2023/07/03 03:16:50;;;;;;;16.35;10.27;;;;;;;-145.41;100.00;58600.66;4955232;28;20038;-73
2023/07/03 03:19:15;;;;;;;14.77;10.07;;;;;;;-145.41;100.00;58600.66;4969463;28;20038;-74
2023/07/03 03:21:41;;;;;;;13.80;9.23;;;;;;;-145.41;100.00;58600.66;4955700;28;20042;-74
2023/07/03 03:24:06;;;;;;;16.52;9.68;;;;;;;-145.41;100.00;58600.66;4973202;28;20062;-74
2023/07/03 03:26:32;;;;;;;16.63;9.20;;;;;;;-145.41;100.00;58600.66;4955496;28;20464;-76
2023/07/03 03:28:57;;;;;;;18.15;9.55;;;;;;;-145.41;100.00;58600.66;4953461;28;20030;-75
2023/07/03 03:31:24;;;;;;;13.40;8.25;;;;;;;-145.41;100.00;58600.66;4954686;28;20401;-76
2023/07/03 03:33:55;;;;;;;13.15;8.73;;;;;;;-145.41;100.00;58600.66;4954130;28;20034;-75
2023/07/03 03:36:21;;;;;;;16.95;9.73;;;;;;;-145.41;100.00;58600.66;4939100;28;20410;-76
2023/07/03 03:38:46;;;;;;;14.15;8.30;;;;;;;-145.41;100.00;58600.66;4971742;28;20034;-75
2023/07/03 03:41:12;;;;;;;17.30;9.38;;;;;;;-145.41;100.00;58600.66;4954837;28;20039;-76
2023/07/03 03:43:39;;;;;;;16.20;9.70;;;;;;;-145.41;100.00;58600.66;4953666;28;20506;-76
2023/07/03 03:46:05;;;;;;;14.68;8.95;;;;;;;-145.41;100.00;58600.66;4972281;28;20055;-75
2023/07/03 03:48:33;;;;;;;14.73;9.20;;;;;;;-145.41;100.00;58600.66;4954770;28;20041;-75
2023/07/03 03:51:00;;;;;;;15.18;9.00;;;;;;;-145.41;100.00;58600.66;4954358;28;20042;-76
2023/07/03 03:53:27;;;;;;;13.43;8.40;;;;;;;-145.41;100.00;58600.66;4954702;28;20019;-76
2023/07/03 03:55:53;;;;;;;14.65;9.32;;;;;;;-145.41;100.00;58600.66;4954239;28;20134;-75
2023/07/03 03:58:20;;;;;;;16.02;9.70;;;;;;;-145.41;100.00;58600.66;4954669;28;20037;-76
2023/07/03 04:00:46;;;;;;;14.15;9.15;;;;;;;-145.41;100.00;58600.66;4954124;28;20029;-76
2023/07/03 04:03:12;;;;;;;14.70;8.60;;;;;;;-145.41;100.00;58600.66;4954541;28;20044;-76
2023/07/03 04:05:39;;;;;;;12.85;7.97;;;;;;;-145.41;100.00;58600.66;4970348;28;20035;-76
2023/07/03 04:08:05;;;;;;;14.57;9.30;;;;;;;-145.41;100.00;58600.66;4972029;28;20473;-74
2023/07/03 04:10:30;;;;;;;13.25;8.32;;;;;;;-145.41;100.00;58600.66;4971291;28;20125;-74
2023/07/03 04:12:55;;;;;;;14.25;8.80;;;;;;;-145.41;100.00;58600.66;4954658;28;20457;-74
2023/07/03 04:15:24;;;;;;;16.10;8.85;;;;;;;-145.41;100.00;58600.66;4971846;28;20039;-73
2023/07/03 04:17:50;;;;;;;15.23;9.45;;;;;;;-145.41;100.00;58600.66;4954826;28;20043;-74
2023/07/03 04:20:16;;;;;;;19.70;10.40;;;;;;;-145.41;100.00;58600.66;4970876;28;20041;-74
2023/07/03 04:22:42;;;;;;;16.38;10.23;;;;;;;-145.41;100.00;58600.66;4954503;28;20039;-74
2023/07/03 04:25:08;;;;;;;17.70;10.10;;;;;;;-145.41;100.00;58600.66;4954583;28;20058;-74
2023/07/03 04:27:34;;;;;;;16.10;10.85;;;;;;;-145.41;100.00;58600.66;4954527;28;20038;-74
2023/07/03 04:29:59;;;;;;;18.08;10.30;;;;;;;-145.41;100.00;58600.66;4971268;28;20406;-74
2023/07/03 04:32:25;;;;;;;16.77;9.95;;;;;;;-145.41;100.00;58600.66;4971896;28;20058;-73
2023/07/03 04:34:50;;;;;;;18.77;9.77;;;;;;;-145.41;100.00;58600.66;4938275;28;20073;-73
2023/07/03 04:37:17;;;;;;;14.95;9.10;;;;;;;-145.41;100.00;58600.66;4969247;28;20093;-74
2023/07/03 04:39:43;;;;;;;18.63;9.60;;;;;;;-145.41;100.00;58600.66;4967624;28;20125;-73
2023/07/03 04:42:13;;;;;;;15.38;8.80;;;;;;;-145.41;100.00;58600.66;4968327;28;20110;-74
2023/07/03 04:44:39;;;;;;;18.45;9.73;;;;;;;-145.41;100.00;58600.66;4969818;28;20034;-74
2023/07/03 04:47:05;;;;;;;16.38;9.55;;;;;;;-145.41;100.00;58600.66;4967393;28;20134;-74
2023/07/03 04:49:33;;;;;;;16.27;9.55;;;;;;;-145.41;100.00;58600.66;4970538;28;20553;-73
2023/07/03 04:51:59;;;;;;;17.33;9.45;;;;;;;-145.41;100.00;58600.66;4967623;28;20034;-74
2023/07/03 04:54:27;;;;;;;17.80;9.85;;;;;;;-145.41;100.00;58600.66;4970780;28;20027;-74
2023/07/03 04:56:53;;;;;;;17.75;11.13;;;;;;;-145.41;100.00;58600.66;4969668;28;20042;-74
2023/07/03 04:59:18;;;;;;;13.70;9.63;;;;;;;-145.41;100.00;58600.66;4961318;28;20034;-73
2023/07/03 05:01:44;;;;;;;15.18;10.02;;;;;;;-145.41;100.00;58600.66;4967239;28;20491;-74
2023/07/03 05:04:10;;;;;;;13.93;8.95;;;;;;;-145.41;100.00;58600.66;4971194;28;20112;-73
2023/07/03 05:06:35;;;;;;;21.85;14.00;;;;;;;-145.41;100.00;58600.66;4971073;28;20520;-74
2023/07/03 05:09:02;;;;;;;18.63;10.05;;;;;;;-145.41;100.00;58600.66;4972852;28;20066;-74
2023/07/03 05:11:29;;;;;;;22.58;11.82;;;;;;;-145.41;100.00;58600.66;4975054;28;20374;-74
2023/07/03 05:13:55;;;;;;;19.63;9.02;;;;;;;-145.41;100.00;58600.66;4970418;28;20121;-74
2023/07/03 05:16:20;;;;;;;17.23;9.82;;;;;;;-145.41;100.00;58600.66;4974908;28;20122;-74
2023/07/03 05:18:45;;;;;;;17.10;10.20;;;;;;;-145.41;100.00;58600.66;4956093;28;20038;-74
2023/07/03 05:21:11;;;;;;;17.67;9.52;;;;;;;-145.41;100.00;58600.66;4974476;28;20509;-74
2023/07/03 05:23:37;;;;;;;19.73;9.50;;;;;;;-145.41;100.00;58600.66;4957376;28;20102;-74
2023/07/03 05:26:03;;;;;;;17.42;9.32;;;;;;;-145.41;100.00;58600.66;4974831;28;20034;-74
2023/07/03 05:28:30;;;;;;;16.02;8.95;;;;;;;-145.41;100.00;58600.66;4954067;28;20457;-74
2023/07/03 05:30:57;;;;;;;15.13;9.43;;;;;;;-145.41;100.00;58600.66;4964309;28;20362;-74
2023/07/03 05:33:23;;;;;;;15.80;9.48;;;;;;;-145.41;100.00;58600.66;4971428;28;20114;-74
2023/07/03 05:35:48;;;;;;;20.05;10.23;;;;;;;-145.41;100.00;58600.66;4975587;28;20034;-73
2023/07/03 05:38:14;;;;;;;19.10;9.05;;;;;;;-145.41;100.00;58600.66;4974010;28;20118;-73
2023/07/03 05:40:39;;;;;;;16.90;9.95;;;;;;;-145.41;100.00;58600.66;4970827;28;20045;-74
2023/07/03 05:43:05;;;;;;;22.13;11.10;;;;;;;-145.41;100.00;58600.66;4974437;28;20094;-74
2023/07/03 05:45:30;;;;;;;18.38;10.10;;;;;;;-145.41;100.00;58600.66;4974497;28;20030;-74
2023/07/03 05:47:55;;;;;;;17.20;9.77;;;;;;;-145.41;100.00;58600.66;4973890;28;20043;-73
2023/07/03 05:50:20;;;;;;;16.35;9.75;;;;;;;-145.41;100.00;58600.66;4973910;28;20093;-73
2023/07/03 05:52:46;;;;;;;14.35;9.07;;;;;;;-145.41;100.00;58600.66;4973517;28;20113;-73
2023/07/03 05:55:11;;;;;;;16.58;9.95;;;;;;;-145.41;100.00;58600.66;4974942;28;20077;-73
2023/07/03 05:57:37;;;;;;;16.20;9.85;;;;;;;-145.41;100.00;58600.66;4960204;28;20050;-73
2023/07/03 06:00:12;;;;;;;15.43;9.00;;;;;;;-145.41;100.00;58600.66;4955594;28;20039;-73
2023/07/03 06:02:40;;;;;;;17.42;10.02;;;;;;;-145.41;100.00;58600.66;4970148;28;20101;-74
2023/07/03 06:05:05;;;;;;;14.95;9.18;;;;;;;-145.41;100.00;58600.66;4973164;28;20039;-74
2023/07/03 06:07:31;;;;;;;20.20;10.18;;;;;;;-145.41;100.00;58600.66;4973321;28;20038;-74
2023/07/03 06:09:57;;;;;;;18.50;9.13;;;;;;;-145.41;100.00;58600.66;4972670;28;20039;-73
2023/07/03 06:12:25;;;;;;;16.83;9.90;;;;;;;-145.41;100.00;58600.66;4973832;28;20041;-73
2023/07/03 06:14:50;;;;;;;17.40;9.68;;;;;;;-145.41;100.00;58600.66;4973847;28;20070;-74
2023/07/03 06:17:16;;;;;;;17.10;9.45;;;;;;;-145.41;100.00;58600.66;4956080;28;20030;-74
2023/07/03 06:19:41;;;;;;;28.30;13.50;;;;;;;-145.41;100.00;58600.66;4971838;28;20026;-74
2023/07/03 06:22:06;;;;;;;19.25;10.57;;;;;;;-145.41;100.00;58600.66;4973623;28;20481;-74
2023/07/03 06:24:32;;;;;;;20.00;10.02;;;;;;;-145.41;100.00;58600.66;4955965;28;20465;-73
2023/07/03 06:26:57;;;;;;;16.40;10.07;;;;;;;-145.41;100.00;58600.66;4973417;28;20386;-73
2023/07/03 06:29:23;;;;;;;18.08;9.30;;;;;;;-145.41;100.00;58600.66;4972916;28;20362;-75
2023/07/03 06:31:48;;;;;;;17.48;8.77;;;;;;;-145.41;100.00;58600.66;4971455;28;20122;-73
2023/07/03 06:34:14;;;;;;;17.75;10.13;;;;;;;-145.41;100.00;58600.66;4973419;28;20110;-74
2023/07/03 06:36:39;;;;;;;20.30;13.25;;;;;;;-145.41;100.00;58600.66;4956067;28;20031;-74
2023/07/03 06:39:05;;;;;;;19.85;9.98;;;;;;;-145.41;100.00;58600.66;4972416;28;20541;-74
2023/07/03 06:41:33;;;;;;;17.42;10.05;;;;;;;-145.41;100.00;58600.66;4973412;28;20077;-74
2023/07/03 06:43:59;;;;;;;20.63;9.13;;;;;;;-145.41;100.00;58600.66;4972425;28;20449;-74
2023/07/03 06:46:25;;;;;;;16.35;9.07;;;;;;;-145.41;100.00;58600.66;4955683;28;20030;-74
2023/07/03 06:48:50;;;;;;;14.15;8.70;;;;;;;-145.41;100.00;58600.66;4954837;28;20094;-74
2023/07/03 06:51:15;;;;;;;18.92;9.68;;;;;;;-145.41;100.00;58600.66;4972869;28;20042;-74
2023/07/03 06:53:41;;;;;;;14.30;7.97;;;;;;;-145.41;100.00;58600.66;4970975;28;20031;-72
2023/07/03 06:56:07;;;;;;;17.20;8.50;;;;;;;-145.41;100.00;58600.66;4968803;28;20430;-75
2023/07/03 06:58:33;;;;;;;20.52;8.43;;;;;;;-145.41;100.00;58600.66;4955121;28;20121;-74
2023/07/03 07:01:06;;;;;;;16.40;8.43;;;;;;;-145.41;100.00;58600.66;4956985;28;20136;-74
2023/07/03 07:03:31;;;;;;;19.20;8.13;;;;;;;-145.41;100.00;58600.66;4970885;28;20062;-75
2023/07/03 07:05:57;;;;;;;17.30;8.70;;;;;;;-145.41;100.00;58600.66;4971762;28;20070;-75
2023/07/03 07:08:22;;;;;;;20.08;8.75;;;;;;;-145.41;100.00;58600.66;4969270;28;20038;-75
2023/07/03 07:10:47;;;;;;;14.57;7.72;;;;;;;-145.41;100.00;58600.66;4971622;28;20102;-75
2023/07/03 07:13:13;;;;;;;18.48;9.05;;;;;;;-145.41;100.00;58600.66;4972321;28;20042;-75
2023/07/03 07:15:40;;;;;;;14.10;7.22;;;;;;;-145.41;100.00;58600.66;4972629;28;20030;-75
2023/07/03 07:18:07;;;;;;;21.50;8.27;;;;;;;-145.41;100.00;58600.66;4971625;28;20478;-75
2023/07/03 07:20:39;;;;;;;21.02;7.28;;;;;;;-145.41;100.00;58600.66;4971494;28;20460;-75
2023/07/03 07:23:07;;;;;;;13.52;6.28;;;;;;;-145.41;100.00;58600.66;4971791;28;20434;-75
2023/07/03 07:25:32;;;;;;;15.00;5.20;;;;;;;-145.41;100.00;58600.66;4971924;28;20030;-74
2023/07/03 07:27:57;;;;;;;12.52;5.43;;;;;;;-145.41;100.00;58600.66;4971960;28;20470;-75
2023/07/03 07:30:23;;;;;;;17.75;4.80;;;;;;;-145.41;100.00;58600.66;4971220;28;20529;-75
2023/07/03 07:32:49;;;;;;;11.20;3.90;;;;;;;-145.41;100.00;58600.66;4967334;28;20035;-75
2023/07/03 07:35:15;;;;;;;9.43;3.25;;;;;;;-145.41;100.00;58600.66;4972139;28;20636;-75
2023/07/03 07:37:41;;;;;;;8.40;3.17;;;;;;;-145.41;100.00;58600.66;4954989;28;20118;-75
2023/07/03 07:40:07;;;;;;;7.90;3.10;;;;;;;-145.41;100.00;58600.66;4954313;28;20118;-74
2023/07/03 07:42:32;;;;;;;8.88;3.25;;;;;;;-145.41;100.00;58600.66;4968536;28;20154;-74
2023/07/03 07:44:58;;;;;;;10.98;3.45;;;;;;;-145.41;100.00;58600.66;4971932;28;20504;-74
2023/07/03 07:47:23;;;;;;;11.18;4.07;;;;;;;-145.41;100.00;58600.66;4971941;28;20038;-74
2023/07/03 07:49:48;;;;;;;10.30;3.92;;;;;;;-145.41;100.00;58600.66;4971564;28;20034;-74
2023/07/03 07:52:15;;;;;;;11.43;4.10;;;;;;;-145.41;100.00;58600.66;4969462;28;20030;-74
2023/07/03 07:54:41;;;;;;;14.55;4.07;;;;;;;-145.41;100.00;58600.66;4969304;28;20385;-74
2023/07/03 07:57:07;;;;;;;13.18;4.10;;;;;;;-145.41;100.00;58600.66;4971461;28;20410;-74
2023/07/03 07:59:35;;;;;;;12.43;4.78;;;;;;;-145.41;100.00;58600.66;4954092;28;20034;-74
2023/07/03 08:02:01;;;;;;;9.80;4.10;;;;;;;-145.41;100.00;58600.66;4970685;28;20766;-74
2023/07/03 08:04:26;;;;;;;14.48;4.28;;;;;;;-145.41;100.00;58600.66;4971363;28;20038;-74
2023/07/03 08:06:52;;;;;;;13.48;5.80;;;;;;;-145.41;100.00;58600.66;4969410;28;20038;-74
2023/07/03 08:09:18;;;;;;;12.63;4.07;;;;;;;-145.41;100.00;58600.66;4953636;28;20085;-75
2023/07/03 08:11:44;;;;;;;11.35;4.43;;;;;;;-145.41;100.00;58600.66;4971404;28;20034;-75
2023/07/03 08:14:10;;;;;;;11.82;4.57;;;;;;;-145.41;100.00;58600.66;4963490;28;20530;-75
2023/07/03 08:16:35;;;;;;;10.30;4.38;;;;;;;-145.41;100.00;58600.66;4971700;28;20042;-75
2023/07/03 08:19:01;;;;;;;12.07;4.93;;;;;;;-145.41;100.00;58600.66;4971257;28;20047;-74
2023/07/03 08:21:26;;;;;;;9.13;3.65;;;;;;;-145.41;100.00;58600.66;4972054;28;20061;-75
2023/07/03 08:23:51;;;;;;;12.82;5.28;;;;;;;-145.41;100.00;58600.66;4971738;28;20049;-75
2023/07/03 08:26:19;;;;;;;15.38;5.32;;;;;;;-145.41;100.00;58600.66;4971929;28;20030;-75
2023/07/03 08:28:44;;;;;;;17.42;5.20;;;;;;;-145.41;100.00;58600.66;4971434;28;20041;-75
2023/07/03 08:31:09;;;;;;;11.18;4.22;;;;;;;-145.41;100.00;58600.66;4971365;28;20039;-75
2023/07/03 08:33:35;;;;;;;12.80;4.55;;;;;;;-145.41;100.00;58600.66;4971562;28;20031;-74
2023/07/03 08:36:00;;;;;;;13.30;5.15;;;;;;;-145.41;100.00;58600.66;4968276;28;20034;-75
2023/07/03 08:38:26;;;;;;;15.27;4.30;;;;;;;-145.41;100.00;58600.66;4971147;28;20026;-75
2023/07/03 08:40:57;;;;;;;13.18;4.43;;;;;;;-145.41;100.00;58600.66;4971062;28;20066;-74
2023/07/03 08:43:27;;;;;;;17.35;4.93;;;;;;;-145.41;100.00;58600.66;4960740;28;20053;-74
2023/07/03 08:45:53;;;;;;;13.15;4.30;;;;;;;-145.41;100.00;58600.66;4957812;28;20047;-75
2023/07/03 08:48:23;;;;;;;13.05;4.70;;;;;;;-145.41;100.00;58600.66;4974590;28;20046;-74
2023/07/03 08:50:53;;;;;;;14.07;4.38;;;;;;;-145.41;100.00;58600.66;4974822;28;20125;-74
2023/07/03 08:53:23;;;;;;;17.97;5.10;;;;;;;-145.41;100.00;58600.66;4957585;28;20031;-74
2023/07/03 08:55:59;;;;;;;15.05;4.45;;;;;;;-145.41;100.00;58600.66;4974981;28;20506;-74
2023/07/03 08:58:25;;;;;;;13.93;3.92;;;;;;;-145.41;100.00;58600.66;4966714;28;20043;-75
2023/07/03 09:01:15;;;;;;;15.80;4.25;;;;;;;-145.41;100.00;58600.66;4973810;28;20065;-74
2023/07/03 09:04:00;;;;;;;13.30;4.15;;;;;;;-145.41;100.00;58600.66;4973536;28;20026;-75
2023/07/03 09:06:41;;;;;;;10.18;3.75;;;;;;;-145.41;100.00;58600.66;4973978;28;20149;-74
2023/07/03 09:09:23;;;;;;;14.07;3.67;;;;;;;-145.41;100.00;58600.66;4973639;28;20042;-74
2023/07/03 09:11:55;;;;;;;14.18;3.92;;;;;;;-145.41;100.00;58600.66;4957277;28;20050;-74
2023/07/03 09:14:27;;;;;;;12.88;3.88;;;;;;;-145.41;100.00;58600.66;4974407;28;20022;-74
2023/07/03 09:16:52;;;;;;;9.77;3.72;;;;;;;-145.41;100.00;58600.66;4971923;28;20042;-74
2023/07/03 09:19:24;;;;;;;13.13;3.25;;;;;;;-145.41;100.00;58600.66;4973586;28;20049;-74
2023/07/03 09:21:53;;;;;;;11.20;3.30;;;;;;;-145.41;100.00;58600.66;4972878;28;20042;-74
2023/07/03 09:24:25;;;;;;;9.77;3.03;;;;;;;-145.41;100.00;58600.66;4974408;28;20022;-75
2023/07/03 09:27:05;;;;;;;8.57;3.38;;;;;;;-145.41;100.00;58600.66;4971850;28;20046;-74
2023/07/03 09:29:34;;;;;;;11.88;2.80;;;;;;;-145.41;100.00;58600.66;4973904;28;20030;-74
2023/07/03 09:31:59;;;;;;;10.50;3.45;;;;;;;-145.41;100.00;58600.66;4974467;28;20583;-74
2023/07/03 09:34:25;;;;;;;14.45;3.90;;;;;;;-145.41;100.00;58600.66;4974294;28;20043;-74
2023/07/03 09:37:03;;;;;;;11.50;2.63;;;;;;;-145.41;100.00;58600.66;4972909;28;20039;-74
2023/07/03 09:39:31;;;;;;;9.10;2.70;;;;;;;-145.41;100.00;58600.66;4973104;28;20512;-74
2023/07/03 09:42:07;;;;;;;7.63;2.63;;;;;;;-145.41;100.00;58600.66;4954587;28;20039;-74
2023/07/03 09:44:32;;;;;;;9.07;2.92;;;;;;;-145.41;100.00;58600.66;4972491;28;20047;-74
2023/07/03 09:46:59;;;;;;;15.70;2.92;;;;;;;-145.41;100.00;58600.66;4972825;28;20049;-75
2023/07/03 09:49:28;;;;;;;10.98;3.05;;;;;;;-145.41;100.00;58600.66;4973247;28;20041;-74
2023/07/03 09:51:56;;;;;;;14.00;3.28;;;;;;;-145.41;100.00;58600.66;4968778;28;20066;-75
2023/07/03 09:54:26;;;;;;;7.40;2.50;;;;;;;-145.41;100.00;58600.66;4955522;28;20034;-75
2023/07/03 09:56:51;;;;;;;10.00;3.63;;;;;;;-145.41;100.00;58600.66;4970780;28;20049;-75
2023/07/03 09:59:19;;;;;;;7.63;2.65;;;;;;;-145.41;100.00;58600.66;4954283;28;20117;-74
2023/07/03 10:01:46;;;;;;;7.68;2.50;;;;;;;-145.41;100.00;58600.66;4970461;28;20039;-75
2023/07/03 10:04:15;;;;;;;10.00;3.10;;;;;;;-145.41;100.00;58600.66;4975012;28;20093;-75
2023/07/03 10:06:57;;;;;;;9.23;3.55;;;;;;;-145.41;100.00;58600.66;4954005;28;20045;-76
2023/07/03 10:09:28;;;;;;;9.13;3.45;;;;;;;-145.41;100.00;58600.66;4973175;28;20039;-75
2023/07/03 10:12:01;;;;;;;9.27;3.40;;;;;;;-145.41;100.00;58600.66;4971610;28;20035;-75
2023/07/03 10:14:46;;;;;;;13.52;3.47;;;;;;;-145.41;100.00;58600.66;4974745;28;20035;-75
2023/07/03 10:17:13;;;;;;;11.50;3.35;;;;;;;-145.41;100.00;58600.66;4973894;28;20093;-76
2023/07/03 10:19:45;;;;;;;11.85;3.17;;;;;;;-145.41;100.00;58600.66;4955803;28;20133;-76
2023/07/03 10:22:12;;;;;;;8.00;2.85;;;;;;;-145.41;100.00;58600.66;4973669;28;20042;-75
2023/07/03 10:24:41;;;;;;;7.60;2.60;;;;;;;-145.41;100.00;58600.66;4972513;28;20104;-76
2023/07/03 10:27:07;;;;;;;8.93;3.05;;;;;;;-145.41;100.00;58600.66;4973426;28;20631;-76
2023/07/03 10:29:38;;;;;;;9.95;3.10;;;;;;;-145.41;100.00;58600.66;4972961;28;20042;-74
2023/07/03 10:32:13;;;;;;;11.55;2.80;;;;;;;-145.41;100.00;58600.66;4970382;28;20034;-75
2023/07/03 10:35:02;;;;;;;7.85;2.70;;;;;;;-145.41;100.00;58600.66;4971353;28;20445;-76
2023/07/03 10:37:31;;;;;;;7.93;3.00;;;;;;;-145.41;100.00;58600.66;4971567;28;20031;-75
2023/07/03 10:40:09;;;;;;;7.75;2.30;;;;;;;-145.41;100.00;58600.66;4972043;28;20026;-76
2023/07/03 10:42:41;;;;;;;7.72;2.80;;;;;;;-145.41;100.00;58600.66;4972275;28;20042;-76
2023/07/03 10:45:10;;;;;;;;;;;;;;;-145.41;100.00;58600.66;4952981;28;20038;-75
2023/07/03 10:47:51;;;;;;;9.73;2.70;;;;;;;-145.41;100.00;58600.66;4970444;28;19914;-75
2023/07/03 10:50:17;;;;;;;24.50;3.38;;;;;;;-145.41;100.00;58600.66;4967587;28;20082;-75
2023/07/03 10:53:03;;;;;;;8.13;2.97;;;;;;;-145.41;100.00;58600.66;4972392;28;20457;-75
2023/07/03 10:55:57;;;;;;;9.00;2.92;;;;;;;-145.41;100.00;58600.66;4971424;28;20033;-75
2023/07/03 10:58:37;;;;;;;7.18;2.28;;;;;;;-145.41;100.00;58600.66;4954565;28;20043;-75
2023/07/03 11:01:14;;;;;;;13.15;2.72;;;;;;;-145.41;100.00;58600.66;4959882;28;20058;-75
2023/07/03 11:04:01;;;;;;;7.07;2.00;;;;;;;-145.41;100.00;58600.66;4970965;28;20043;-76
2023/07/03 11:06:39;;;;;;;10.60;2.40;;;;;;;-145.41;100.00;58600.66;4954085;28;20030;-76